createdAt,value
2023-03-27T00:02:12.317Z,10.50
2023-03-27T00:04:43.206Z,5.90
2023-03-27T00:07:17.306Z,7.13
2023-03-27T00:09:47.426Z,2.63
2023-03-27T00:12:17.955Z,8.90
2023-03-27T00:14:48.440Z,5.50
2023-03-27T00:17:19.779Z,11.07
2023-03-27T00:19:50.982Z,5.63
2023-03-27T00:22:26.174Z,2.90
2023-03-27T00:24:56.916Z,4.20
2023-03-27T00:27:27.631Z,7.95
2023-03-27T00:29:57.981Z,7.22
2023-03-27T00:32:28.382Z,3.65
2023-03-27T00:34:58.667Z,6.90
2023-03-27T00:37:31.691Z,9.88
2023-03-27T00:40:02.143Z,9.13
2023-03-27T00:42:34.566Z,5.03
2023-03-27T00:45:06.554Z,10.27
2023-03-27T00:47:44.831Z,4.47
2023-03-27T00:50:22.466Z,9.07
2023-03-27T00:53:05.780Z,4.50
2023-03-27T00:55:41.634Z,3.47
2023-03-27T00:58:16.843Z,5.63
2023-03-27T01:00:47.634Z,10.35
2023-03-27T01:03:19.142Z,4.65
2023-03-27T01:05:50.578Z,3.38
2023-03-27T01:08:24.775Z,4.03
2023-03-27T01:11:02.006Z,4.85
2023-03-27T01:14:19.611Z,2.17
2023-03-27T01:17:07.737Z,5.65
2023-03-27T01:20:16.787Z,4.53
2023-03-27T01:23:36.235Z,3.42
2023-03-27T01:26:58.510Z,2.38
2023-03-27T01:29:51.229Z,1.50
2023-03-27T01:32:50.663Z,3.08
2023-03-27T01:35:50.232Z,4.82
2023-03-27T01:38:52.025Z,4.25
2023-03-27T01:41:31.935Z,2.75
2023-03-27T01:44:07.177Z,1.58
2023-03-27T01:46:43.010Z,1.35
2023-03-27T01:49:17.531Z,2.85
2023-03-27T01:51:52.088Z,2.95
2023-03-27T01:54:27.876Z,2.78
2023-03-27T01:57:08.577Z,3.25
2023-03-27T01:59:45.556Z,1.70
2023-03-27T02:02:22.362Z,2.45
2023-03-27T02:04:58.311Z,1.77
2023-03-27T02:07:33.382Z,5.18
2023-03-27T02:10:08.494Z,3.88
2023-03-27T02:12:49.751Z,4.43
2023-03-27T02:15:26.321Z,3.55
2023-03-27T02:18:05.784Z,6.22
2023-03-27T02:20:39.200Z,2.53
2023-03-27T02:23:10.355Z,4.40
2023-03-27T02:25:44.564Z,5.43
2023-03-27T02:28:48.926Z,3.47
2023-03-27T02:31:35.242Z,2.05
2023-03-27T02:34:33.967Z,1.85
2023-03-27T02:37:17.874Z,4.35
2023-03-27T02:40:16.811Z,2.65
2023-03-27T02:43:00.298Z,1.77
2023-03-27T02:45:46.415Z,12.32
2023-03-27T02:48:23.439Z,3.30
2023-03-27T02:50:58.468Z,4.95
2023-03-27T02:53:32.588Z,1.42
2023-03-27T02:56:07.595Z,3.60
2023-03-27T02:58:43.919Z,7.47
2023-03-27T03:01:37.691Z,9.55
2023-03-27T03:04:26.477Z,1.73
2023-03-27T03:07:34.924Z,1.50
2023-03-27T03:10:06.686Z,9.63
2023-03-27T03:12:38.118Z,4.55
2023-03-27T03:15:11.399Z,4.00
2023-03-27T03:17:44.323Z,3.00
2023-03-27T03:20:17.310Z,4.00
2023-03-27T03:22:47.683Z,4.22
2023-03-27T03:25:20.892Z,2.38
2023-03-27T03:27:51.734Z,4.47
2023-03-27T03:30:22.176Z,6.70
2023-03-27T03:33:03.844Z,7.55
2023-03-27T03:35:35.074Z,4.22
2023-03-27T03:38:12.768Z,3.15
2023-03-27T03:40:49.149Z,4.25
2023-03-27T03:43:21.745Z,5.07
2023-03-27T03:45:52.775Z,4.50
2023-03-27T03:48:26.346Z,3.63
2023-03-27T03:53:27.758Z,4.88
2023-03-27T03:55:58.383Z,5.55
2023-03-27T03:58:34.341Z,7.07
2023-03-27T04:01:09.566Z,8.63
2023-03-27T04:03:53.684Z,5.65
2023-03-27T04:06:25.826Z,3.42
2023-03-27T04:09:01.703Z,5.55
2023-03-27T04:11:47.239Z,7.85
2023-03-27T04:14:36.650Z,6.85
2023-03-27T04:17:16.399Z,17.48
2023-03-27T04:19:49.313Z,7.85
2023-03-27T04:22:22.988Z,8.50
2023-03-27T04:27:30.514Z,3.60
2023-03-27T04:30:16.399Z,5.25
2023-03-27T04:33:06.407Z,6.80
2023-03-27T04:36:06.590Z,11.13
2023-03-27T04:38:51.312Z,9.43
2023-03-27T04:41:21.930Z,5.97
2023-03-27T04:43:52.600Z,12.98
2023-03-27T04:46:22.838Z,12.70
2023-03-27T04:48:59.582Z,9.35
2023-03-27T04:51:50.609Z,9.85
2023-03-27T04:56:53.536Z,10.68
2023-03-27T04:59:24.496Z,7.22
2023-03-27T05:02:14.971Z,7.07
2023-03-27T05:04:50.749Z,7.22
2023-03-27T05:07:25.746Z,7.20
2023-03-27T05:09:58.231Z,8.43
2023-03-27T05:12:32.313Z,8.05
2023-03-27T05:17:53.372Z,10.18
2023-03-27T05:20:26.911Z,14.07
2023-03-27T05:23:00.258Z,64.00
2023-03-27T05:25:32.641Z,19.45
2023-03-27T05:28:06.237Z,14.68
2023-03-27T05:30:40.051Z,12.10
2023-03-27T05:33:21.907Z,7.82
2023-03-27T05:35:53.397Z,12.25
2023-03-27T05:38:27.520Z,10.27
2023-03-27T05:40:57.884Z,9.30
2023-03-27T05:43:28.541Z,9.30
2023-03-27T05:45:58.761Z,9.75
2023-03-27T05:48:29.408Z,6.90
2023-03-27T05:51:03.571Z,8.02
2023-03-27T05:53:36.569Z,9.95
2023-03-27T05:56:36.099Z,10.18
2023-03-27T05:59:08.112Z,28.52
2023-03-27T06:01:40.125Z,20.27
2023-03-27T06:04:11.245Z,9.75
2023-03-27T06:07:07.733Z,8.70
2023-03-27T06:09:40.986Z,11.07
2023-03-27T06:12:31.471Z,9.63
2023-03-27T06:15:12.446Z,12.82
2023-03-27T06:17:51.485Z,11.05
2023-03-27T06:20:23.131Z,8.90
2023-03-27T06:22:59.913Z,8.27
2023-03-27T06:25:39.577Z,9.48
2023-03-27T06:28:11.500Z,11.88
2023-03-27T06:30:48.477Z,11.23
2023-03-27T06:33:31.432Z,8.55
2023-03-27T06:36:05.637Z,8.38
2023-03-27T06:38:41.083Z,11.00
2023-03-27T06:41:14.607Z,12.45
2023-03-27T06:44:00.093Z,13.70
2023-03-27T06:46:53.215Z,13.15
2023-03-27T06:49:32.529Z,9.90
2023-03-27T06:52:08.861Z,11.32
2023-03-27T06:54:39.392Z,16.45
2023-03-27T06:57:12.682Z,9.45
2023-03-27T06:59:54.190Z,9.40
2023-03-27T07:02:28.823Z,9.70
2023-03-27T07:05:04.904Z,13.35
2023-03-27T07:07:48.042Z,9.65
2023-03-27T07:10:21.058Z,9.07
2023-03-27T07:12:56.247Z,6.47
2023-03-27T07:15:28.779Z,8.82
2023-03-27T07:18:00.557Z,7.50
2023-03-27T07:20:33.146Z,15.75
2023-03-27T07:23:08.616Z,7.55
2023-03-27T07:26:01.470Z,9.40
2023-03-27T07:28:55.289Z,9.05
2023-03-27T07:31:40.314Z,6.75
2023-03-27T07:34:16.648Z,8.63
2023-03-27T07:37:05.290Z,10.50
2023-03-27T07:39:36.955Z,8.45
2023-03-27T07:42:07.632Z,11.27
2023-03-27T07:44:58.973Z,11.00
2023-03-27T07:47:30.194Z,15.05
2023-03-27T07:50:01.752Z,34.03
2023-03-27T07:52:34.987Z,14.73
2023-03-27T07:55:07.668Z,18.08
2023-03-27T07:57:57.998Z,8.57
2023-03-27T08:00:39.702Z,10.77
2023-03-27T08:03:15.959Z,12.80
2023-03-27T08:05:48.965Z,10.52
2023-03-27T08:08:19.249Z,9.57
2023-03-27T08:10:58.073Z,8.98
2023-03-27T08:13:31.703Z,12.05
2023-03-27T08:16:10.778Z,13.05
2023-03-27T08:18:41.016Z,13.32
2023-03-27T08:21:12.936Z,11.00
2023-03-27T08:23:43.704Z,17.73
2023-03-27T08:26:33.378Z,7.20
2023-03-27T08:29:07.557Z,10.70
2023-03-27T08:31:41.274Z,13.23
2023-03-27T08:34:13.862Z,8.30
2023-03-27T08:36:49.542Z,6.95
2023-03-27T08:39:23.057Z,8.88
2023-03-27T08:42:03.252Z,13.73
2023-03-27T08:44:43.109Z,11.18
2023-03-27T08:47:24.554Z,12.88
2023-03-27T08:50:05.991Z,8.00
2023-03-27T08:52:50.349Z,11.57
2023-03-27T08:55:40.525Z,10.85
2023-03-27T08:58:23.405Z,11.85
2023-03-27T09:01:07.640Z,14.85
2023-03-27T09:03:48.690Z,10.70
2023-03-27T09:06:27.957Z,13.95
2023-03-27T09:09:10.991Z,12.60
2023-03-27T09:11:55.055Z,17.35
2023-03-27T09:14:38.436Z,24.85
2023-03-27T09:17:18.402Z,34.53
2023-03-27T09:19:56.796Z,13.77
2023-03-27T09:22:33.031Z,20.02
2023-03-27T09:25:22.307Z,15.52
2023-03-27T09:27:58.816Z,14.00
2023-03-27T09:30:45.397Z,21.13
2023-03-27T09:33:24.484Z,13.80
2023-03-27T09:36:04.367Z,20.45
2023-03-27T09:38:38.132Z,11.77
2023-03-27T09:41:17.719Z,10.35
2023-03-27T09:43:57.819Z,11.23
2023-03-27T09:46:30.408Z,14.02
2023-03-27T09:49:09.869Z,15.38
2023-03-27T09:51:51.574Z,28.88
2023-03-27T09:54:55.417Z,15.80
2023-03-27T09:57:35.234Z,27.95
2023-03-27T10:00:15.749Z,19.23
2023-03-27T10:02:51.323Z,17.50
2023-03-27T10:05:25.484Z,17.50
2023-03-27T10:08:02.103Z,23.25
2023-03-27T10:10:59.464Z,19.55
2023-03-27T10:13:49.706Z,34.42
2023-03-27T10:16:25.750Z,16.08
2023-03-27T10:19:07.432Z,20.88
2023-03-27T10:21:46.949Z,12.70
2023-03-27T10:24:33.686Z,11.90
2023-03-27T10:27:12.316Z,26.63
2023-03-27T10:30:02.498Z,26.98
2023-03-27T10:32:47.072Z,37.05
2023-03-27T10:35:47.868Z,23.63
2023-03-27T10:38:25.279Z,30.52
2023-03-27T10:41:39.396Z,23.25
2023-03-27T10:44:19.912Z,41.90
2023-03-27T10:46:57.919Z,36.58
2023-03-27T10:49:38.579Z,44.47
2023-03-27T10:52:22.722Z,42.63
2023-03-27T10:55:30.623Z,35.42
2023-03-27T10:58:08.955Z,41.75
2023-03-27T11:00:46.975Z,45.42
2023-03-27T11:03:24.994Z,36.33
2023-03-27T11:06:03.015Z,38.45
2023-03-27T11:08:48.264Z,31.20
2023-03-27T11:11:25.614Z,39.65
2023-03-27T11:14:04.064Z,36.70
2023-03-27T11:16:41.651Z,32.28
2023-03-27T11:19:51.549Z,40.60
2023-03-27T11:22:36.628Z,29.33
2023-03-27T11:25:23.255Z,41.03
2023-03-27T11:28:01.647Z,50.10
2023-03-27T11:30:45.455Z,46.13
2023-03-27T11:33:32.423Z,42.25
2023-03-27T11:36:25.843Z,47.10
2023-03-27T11:39:15.858Z,36.50
2023-03-27T11:41:54.666Z,46.58
2023-03-27T11:44:30.640Z,32.58
2023-03-27T11:47:42.493Z,45.95
2023-03-27T11:50:28.107Z,37.47
2023-03-27T11:56:26.743Z,22.85
2023-03-27T11:59:24.141Z,31.70
2023-03-27T12:02:12.414Z,23.98
2023-03-27T12:04:51.028Z,24.27
2023-03-27T12:07:53.608Z,19.95
2023-03-27T12:10:32.029Z,23.50
2023-03-27T12:13:47.762Z,22.10
2023-03-27T12:16:56.892Z,19.02
2023-03-27T12:19:53.753Z,24.15
2023-03-27T12:22:47.005Z,25.17
2023-03-27T12:25:49.892Z,24.38
2023-03-27T12:28:52.256Z,22.60
2023-03-27T12:31:49.715Z,21.25
2023-03-27T12:34:39.282Z,19.83
2023-03-27T12:37:19.365Z,16.65
2023-03-27T12:39:55.910Z,26.40
2023-03-27T12:42:44.671Z,19.73
2023-03-27T12:45:38.777Z,28.55
2023-03-27T12:48:22.678Z,36.00
2023-03-27T12:51:01.515Z,23.83
2023-03-27T12:53:52.831Z,25.92
2023-03-27T12:56:39.048Z,20.85
2023-03-27T12:59:24.341Z,20.65
2023-03-27T13:02:24.242Z,22.77
2023-03-27T13:05:27.496Z,22.48
2023-03-27T13:08:19.309Z,19.65
2023-03-27T13:11:17.410Z,11.27
2023-03-27T13:14:19.489Z,11.18
2023-03-27T13:17:03.138Z,11.27
2023-03-27T13:19:51.901Z,7.63
2023-03-27T13:22:37.399Z,14.38
2023-03-27T13:25:26.471Z,7.10
2023-03-27T13:28:25.448Z,9.45
2023-03-27T13:31:09.732Z,7.72
2023-03-27T13:34:17.941Z,8.65
2023-03-27T13:37:06.199Z,7.57
2023-03-27T13:39:44.516Z,8.05
2023-03-27T13:42:17.386Z,17.98
2023-03-27T13:44:58.259Z,12.75
2023-03-27T13:48:11.110Z,8.32
2023-03-27T13:51:03.089Z,12.65
2023-03-27T13:53:51.496Z,9.45
2023-03-27T13:57:03.757Z,8.60
2023-03-27T14:00:16.069Z,9.63
2023-03-27T14:03:27.921Z,5.90
2023-03-27T14:06:50.544Z,17.45
2023-03-27T14:09:29.630Z,7.15
2023-03-27T14:12:20.980Z,10.68
2023-03-27T14:15:50.229Z,7.95
2023-03-27T14:19:12.756Z,10.13
2023-03-27T14:21:59.087Z,5.32
2023-03-27T14:24:42.817Z,7.97
2023-03-27T14:27:34.042Z,10.88
2023-03-27T14:30:12.400Z,10.70
2023-03-27T14:32:44.376Z,5.80
2023-03-27T14:35:32.810Z,14.07
2023-03-27T14:38:22.258Z,8.30
2023-03-27T14:40:54.907Z,11.95
2023-03-27T14:43:36.737Z,10.00
2023-03-27T14:46:12.198Z,6.72
2023-03-27T14:48:46.326Z,7.68
2023-03-27T14:51:24.697Z,8.63
2023-03-27T14:54:05.243Z,3.78
2023-03-27T14:56:49.724Z,3.50
2023-03-27T14:59:43.099Z,2.70
2023-03-27T15:02:23.419Z,3.70
2023-03-27T15:05:01.237Z,2.88
2023-03-27T15:07:42.714Z,8.52
2023-03-27T15:10:26.899Z,4.80
2023-03-27T15:13:05.899Z,8.73
2023-03-27T15:15:49.062Z,4.13
2023-03-27T15:18:26.055Z,3.53
2023-03-27T15:20:57.610Z,3.72
2023-03-27T15:23:31.469Z,14.20
2023-03-27T15:28:40.574Z,11.20
2023-03-27T15:31:12.890Z,18.17
2023-03-27T15:33:56.213Z,7.85
2023-03-27T15:36:29.316Z,7.83
2023-03-27T15:39:04.362Z,9.57
2023-03-27T15:41:53.649Z,3.25
2023-03-27T15:44:27.730Z,5.28
2023-03-27T15:46:59.705Z,8.55
2023-03-27T15:49:37.209Z,8.45
2023-03-27T15:52:31.529Z,3.67
2023-03-27T15:55:04.274Z,6.10
2023-03-27T15:57:37.167Z,12.68
2023-03-27T16:00:11.970Z,6.07
2023-03-27T16:02:48.073Z,7.13
2023-03-27T16:05:20.573Z,9.13
2023-03-27T16:07:52.433Z,3.75
2023-03-27T16:10:32.877Z,3.60
2023-03-27T16:13:09.283Z,4.70
2023-03-27T16:15:41.952Z,5.05
2023-03-27T16:18:22.198Z,6.80
2023-03-27T16:20:55.267Z,9.82
2023-03-27T16:23:25.604Z,7.15
2023-03-27T16:25:55.835Z,7.18
2023-03-27T16:28:29.968Z,4.05
2023-03-27T16:31:01.150Z,5.53
2023-03-27T16:33:32.295Z,6.88
2023-03-27T16:36:02.591Z,8.88
2023-03-27T16:38:35.706Z,5.63
2023-03-27T16:41:05.854Z,4.07
2023-03-27T16:43:38.837Z,4.45
2023-03-27T16:46:09.941Z,5.37
2023-03-27T16:48:40.218Z,5.50
2023-03-27T16:51:10.517Z,4.70
2023-03-27T16:53:40.852Z,3.60
2023-03-27T16:56:11.749Z,6.20
2023-03-27T16:58:44.547Z,7.63
2023-03-27T17:01:14.883Z,5.38
2023-03-27T17:03:45.055Z,3.67
2023-03-27T17:06:16.138Z,5.53
2023-03-27T17:08:46.493Z,8.88
2023-03-27T17:11:17.036Z,4.97
2023-03-27T17:13:50.235Z,4.55
2023-03-27T17:16:20.481Z,4.20
2023-03-27T17:18:52.111Z,5.50
2023-03-27T17:21:22.346Z,3.53
2023-03-27T17:23:53.794Z,2.97
2023-03-27T17:26:26.058Z,4.30
2023-03-27T17:28:59.973Z,4.88
2023-03-27T17:31:31.047Z,9.73
2023-03-27T17:34:01.678Z,12.68
2023-03-27T17:36:41.530Z,5.05
2023-03-27T17:39:15.349Z,6.65
2023-03-27T17:41:45.582Z,8.35
2023-03-27T17:44:18.544Z,4.78
2023-03-27T17:46:48.795Z,6.57
2023-03-27T17:49:19.168Z,7.30
2023-03-27T17:51:49.494Z,5.32
2023-03-27T17:54:22.515Z,12.82
2023-03-27T17:56:54.412Z,6.20
2023-03-27T17:59:28.880Z,11.75
2023-03-27T18:01:59.158Z,9.75
2023-03-27T18:04:29.490Z,12.23
2023-03-27T18:06:59.842Z,4.05
2023-03-27T18:09:30.692Z,6.40
2023-03-27T18:12:01.042Z,5.00
2023-03-27T18:14:33.972Z,6.97
2023-03-27T18:17:04.326Z,7.57
2023-03-27T18:19:34.537Z,7.72
2023-03-27T18:22:05.357Z,6.43
2023-03-27T18:24:35.610Z,11.07
2023-03-27T18:27:05.857Z,9.93
2023-03-27T18:29:38.633Z,5.20
2023-03-27T18:32:08.928Z,6.18
2023-03-27T18:34:39.178Z,7.75
2023-03-27T18:37:09.532Z,9.90
2023-03-27T18:39:40.106Z,5.25
2023-03-27T18:42:10.292Z,4.22
2023-03-27T18:44:43.125Z,6.05
2023-03-27T18:47:13.308Z,10.98
2023-03-27T18:49:44.625Z,5.25
2023-03-27T18:52:15.088Z,5.35
2023-03-27T18:54:45.462Z,4.93
2023-03-27T18:57:20.052Z,8.82
2023-03-27T18:59:55.357Z,7.10
2023-03-27T19:02:25.646Z,2.92
2023-03-27T19:04:56.284Z,4.53
2023-03-27T19:07:26.484Z,5.05
2023-03-27T19:09:57.450Z,3.45
2023-03-27T19:12:27.628Z,6.25
2023-03-27T19:15:25.412Z,10.75
2023-03-27T19:18:01.566Z,4.22
2023-03-27T19:21:07.256Z,2.92
2023-03-27T19:26:24.401Z,3.15
2023-03-27T19:28:56.135Z,8.00
2023-03-27T19:31:29.415Z,5.47
2023-03-27T19:34:04.405Z,5.40
2023-03-27T19:36:35.311Z,5.10
2023-03-27T19:39:05.939Z,6.72
2023-03-27T19:41:36.181Z,7.80
2023-03-27T19:44:06.575Z,6.05
2023-03-27T19:46:39.439Z,4.60
2023-03-27T19:49:09.693Z,3.63
2023-03-27T19:52:09.464Z,4.15
2023-03-27T19:54:39.698Z,6.10
2023-03-27T19:57:09.910Z,4.05
2023-03-27T19:59:40.204Z,5.13
2023-03-27T20:02:14.732Z,4.57
2023-03-27T20:04:45.109Z,3.55
2023-03-27T20:07:15.692Z,3.40
2023-03-27T20:09:45.970Z,5.43
2023-03-27T20:12:16.241Z,5.28
2023-03-27T20:14:58.180Z,2.92
2023-03-27T20:17:39.875Z,4.25
2023-03-27T20:20:11.163Z,3.45
2023-03-27T20:22:57.451Z,4.43
2023-03-27T20:25:30.190Z,4.93
2023-03-27T20:28:00.330Z,4.15
2023-03-27T20:30:31.207Z,6.15
2023-03-27T20:33:09.758Z,12.35
2023-03-27T20:35:41.854Z,9.35
2023-03-27T20:38:13.974Z,4.80
2023-03-27T20:40:53.177Z,15.30
2023-03-27T20:43:27.594Z,3.65
2023-03-27T20:45:59.268Z,2.85
2023-03-27T20:48:40.411Z,3.83
2023-03-27T20:51:15.101Z,4.78
2023-03-27T20:53:46.387Z,4.68
2023-03-27T20:56:17.077Z,10.98
2023-03-27T20:58:47.266Z,5.85
2023-03-27T21:01:19.693Z,3.50
2023-03-27T21:03:53.841Z,5.00
2023-03-27T21:06:24.168Z,4.38
2023-03-27T21:08:54.342Z,3.10
2023-03-27T21:11:24.526Z,6.35
2023-03-27T21:13:54.913Z,4.88
2023-03-27T21:16:25.109Z,3.38
2023-03-27T21:18:57.895Z,5.85
2023-03-27T21:21:28.186Z,4.65
2023-03-27T21:23:58.411Z,3.75
2023-03-27T21:26:28.617Z,7.32
2023-03-27T21:28:59.360Z,4.93
2023-03-27T21:31:29.776Z,3.00
2023-03-27T21:34:02.604Z,4.60
2023-03-27T21:36:33.112Z,3.42
2023-03-27T21:39:03.456Z,5.18
2023-03-27T21:41:34.963Z,3.50
2023-03-27T21:44:05.191Z,2.97
2023-03-27T21:46:35.538Z,7.32
2023-03-27T21:49:08.539Z,9.65
2023-03-27T21:51:38.883Z,2.65
2023-03-27T21:54:09.158Z,9.68
2023-03-27T21:56:39.445Z,3.67
2023-03-27T21:59:09.640Z,9.23
2023-03-27T22:01:39.823Z,3.78
2023-03-27T22:04:12.645Z,2.67
2023-03-27T22:06:42.779Z,2.55
2023-03-27T22:09:12.991Z,5.78
2023-03-27T22:11:43.393Z,4.68
2023-03-27T22:14:13.921Z,3.10
2023-03-27T22:16:44.558Z,6.47
2023-03-27T22:19:17.342Z,9.93
2023-03-27T22:21:47.522Z,5.95
2023-03-27T22:24:17.703Z,4.63
2023-03-27T22:26:47.831Z,5.82
2023-03-27T22:29:18.107Z,3.28
2023-03-27T22:31:48.334Z,5.95
2023-03-27T22:34:21.480Z,10.40
2023-03-27T22:36:51.672Z,5.18
2023-03-27T22:39:21.945Z,9.23
2023-03-27T22:41:52.069Z,3.17
2023-03-27T22:44:22.243Z,4.90
2023-03-27T22:46:53.281Z,4.88
2023-03-27T22:49:26.205Z,7.78
2023-03-27T22:51:56.574Z,4.63
2023-03-27T22:54:26.723Z,8.95
2023-03-27T22:56:59.251Z,4.82
2023-03-27T22:59:29.598Z,3.60
2023-03-27T23:01:59.884Z,3.63
2023-03-27T23:04:32.653Z,2.90
2023-03-27T23:07:03.974Z,7.03
2023-03-27T23:09:34.158Z,4.47
2023-03-27T23:12:04.275Z,7.40
2023-03-27T23:14:34.696Z,5.18
2023-03-27T23:17:05.127Z,4.82
2023-03-27T23:19:37.935Z,4.45
2023-03-27T23:22:08.069Z,7.50
2023-03-27T23:24:38.225Z,6.10
2023-03-27T23:27:08.662Z,5.13
2023-03-27T23:29:38.850Z,5.53
2023-03-27T23:32:09.435Z,7.13
2023-03-27T23:34:42.331Z,3.17
2023-03-27T23:37:12.524Z,4.30
2023-03-27T23:39:42.751Z,4.03
2023-03-27T23:42:13.079Z,3.40
2023-03-27T23:44:43.352Z,5.43
2023-03-27T23:47:15.053Z,3.13
2023-03-27T23:49:48.374Z,5.47
2023-03-27T23:52:19.065Z,6.25
2023-03-27T23:54:52.288Z,2.75
2023-03-27T23:57:25.779Z,4.57
